sensor_id;sensor_type;location;lat;lon;timestamp;temperature;humidity
33739;DHT22;20063;51.730;11.110;2023-04-01T00:01:37;9.70;99.90
33739;DHT22;20063;51.730;11.110;2023-04-01T00:04:03;9.70;99.90
33739;DHT22;20063;51.730;11.110;2023-04-01T00:06:29;9.70;99.90
33739;DHT22;20063;51.730;11.110;2023-04-01T00:08:55;9.70;99.90
33739;DHT22;20063;51.730;11.110;2023-04-01T00:11:20;9.70;99.90
33739;DHT22;20063;51.730;11.110;2023-04-01T00:13:46;9.70;99.90
33739;DHT22;20063;51.730;11.110;2023-04-01T00:16:12;9.70;99.90
33739;DHT22;20063;51.730;11.110;2023-04-01T00:18:38;9.60;99.90
33739;DHT22;20063;51.730;11.110;2023-04-01T00:21:04;9.60;99.90
33739;DHT22;20063;51.730;11.110;2023-04-01T00:23:29;9.60;99.90
33739;DHT22;20063;51.730;11.110;2023-04-01T00:25:55;9.50;99.90
33739;DHT22;20063;51.730;11.110;2023-04-01T00:28:21;9.60;99.90
33739;DHT22;20063;51.730;11.110;2023-04-01T00:30:47;9.50;99.90
33739;DHT22;20063;51.730;11.110;2023-04-01T00:33:13;9.50;99.90
33739;DHT22;20063;51.730;11.110;2023-04-01T00:35:39;9.50;99.90
33739;DHT22;20063;51.730;11.110;2023-04-01T00:38:05;9.50;99.90
33739;DHT22;20063;51.730;11.110;2023-04-01T00:40:34;9.50;99.90
33739;DHT22;20063;51.730;11.110;2023-04-01T00:43:00;9.50;99.90
33739;DHT22;20063;51.730;11.110;2023-04-01T00:45:29;9.50;99.90
33739;DHT22;20063;51.730;11.110;2023-04-01T00:47:56;9.50;99.90
33739;DHT22;20063;51.730;11.110;2023-04-01T00:50:24;9.50;99.90
33739;DHT22;20063;51.730;11.110;2023-04-01T00:52:54;9.60;99.90
33739;DHT22;20063;51.730;11.110;2023-04-01T00:55:21;9.50;99.90
33739;DHT22;20063;51.730;11.110;2023-04-01T00:57:48;9.50;99.90
33739;DHT22;20063;51.730;11.110;2023-04-01T01:00:16;9.50;99.90
33739;DHT22;20063;51.730;11.110;2023-04-01T01:02:46;9.50;99.90
33739;DHT22;20063;51.730;11.110;2023-04-01T01:05:14;9.50;99.90
33739;DHT22;20063;51.730;11.110;2023-04-01T01:10:29;9.50;99.90
33739;DHT22;20063;51.730;11.110;2023-04-01T01:19:18;9.60;99.90
33739;DHT22;20063;51.730;11.110;2023-04-01T01:27:39;9.60;99.90
33739;DHT22;20063;51.730;11.110;2023-04-01T01:30:19;9.50;99.90
33739;DHT22;20063;51.730;11.110;2023-04-01T01:32:59;9.60;99.90
33739;DHT22;20063;51.730;11.110;2023-04-01T01:35:35;9.60;99.90
33739;DHT22;20063;51.730;11.110;2023-04-01T01:38:06;9.60;99.90
33739;DHT22;20063;51.730;11.110;2023-04-01T01:40:34;9.50;99.90
33739;DHT22;20063;51.730;11.110;2023-04-01T01:43:06;9.50;99.90
33739;DHT22;20063;51.730;11.110;2023-04-01T01:45:36;9.60;99.90
33739;DHT22;20063;51.730;11.110;2023-04-01T01:48:05;9.50;99.90
33739;DHT22;20063;51.730;11.110;2023-04-01T01:50:32;9.60;99.90
33739;DHT22;20063;51.730;11.110;2023-04-01T01:53:07;9.60;99.90
33739;DHT22;20063;51.730;11.110;2023-04-01T01:55:47;9.50;99.90
33739;DHT22;20063;51.730;11.110;2023-04-01T01:58:39;9.50;99.90
33739;DHT22;20063;51.730;11.110;2023-04-01T02:01:29;9.50;99.90
33739;DHT22;20063;51.730;11.110;2023-04-01T02:03:58;9.50;99.90
33739;DHT22;20063;51.730;11.110;2023-04-01T02:06:26;9.50;99.90
33739;DHT22;20063;51.730;11.110;2023-04-01T02:08:59;9.50;99.90
33739;DHT22;20063;51.730;11.110;2023-04-01T02:11:37;9.50;99.90
33739;DHT22;20063;51.730;11.110;2023-04-01T02:14:17;9.50;99.90
33739;DHT22;20063;51.730;11.110;2023-04-01T02:16:57;9.50;99.90
33739;DHT22;20063;51.730;11.110;2023-04-01T02:19:49;9.40;99.90
33739;DHT22;20063;51.730;11.110;2023-04-01T02:22:20;9.40;99.90
33739;DHT22;20063;51.730;11.110;2023-04-01T02:24:49;9.40;99.90
33739;DHT22;20063;51.730;11.110;2023-04-01T02:27:16;9.40;99.90
33739;DHT22;20063;51.730;11.110;2023-04-01T02:29:41;9.40;99.90
33739;DHT22;20063;51.730;11.110;2023-04-01T02:32:08;9.40;99.90
33739;DHT22;20063;51.730;11.110;2023-04-01T02:34:35;9.40;99.90
33739;DHT22;20063;51.730;11.110;2023-04-01T02:37:01;9.40;99.90
33739;DHT22;20063;51.730;11.110;2023-04-01T02:39:27;9.40;99.90
33739;DHT22;20063;51.730;11.110;2023-04-01T02:41:53;9.40;99.90
33739;DHT22;20063;51.730;11.110;2023-04-01T02:44:18;9.40;99.90
33739;DHT22;20063;51.730;11.110;2023-04-01T02:46:44;9.40;99.90
33739;DHT22;20063;51.730;11.110;2023-04-01T02:49:10;9.40;99.90
33739;DHT22;20063;51.730;11.110;2023-04-01T02:51:36;9.30;99.90
33739;DHT22;20063;51.730;11.110;2023-04-01T02:54:02;9.40;99.90
33739;DHT22;20063;51.730;11.110;2023-04-01T02:56:27;9.40;99.90
33739;DHT22;20063;51.730;11.110;2023-04-01T02:58:54;9.40;99.90
33739;DHT22;20063;51.730;11.110;2023-04-01T03:01:20;9.30;99.90
33739;DHT22;20063;51.730;11.110;2023-04-01T03:03:46;9.30;99.90
33739;DHT22;20063;51.730;11.110;2023-04-01T03:06:14;9.30;99.90
33739;DHT22;20063;51.730;11.110;2023-04-01T03:08:40;9.30;99.90
33739;DHT22;20063;51.730;11.110;2023-04-01T03:11:06;9.30;99.90
33739;DHT22;20063;51.730;11.110;2023-04-01T03:13:35;9.30;99.90
33739;DHT22;20063;51.730;11.110;2023-04-01T03:16:01;9.30;99.90
33739;DHT22;20063;51.730;11.110;2023-04-01T03:18:27;9.30;99.90
33739;DHT22;20063;51.730;11.110;2023-04-01T03:20:52;9.30;99.90
33739;DHT22;20063;51.730;11.110;2023-04-01T03:23:18;9.30;99.90
33739;DHT22;20063;51.730;11.110;2023-04-01T03:25:47;9.30;99.90
33739;DHT22;20063;51.730;11.110;2023-04-01T03:28:14;9.30;99.90
33739;DHT22;20063;51.730;11.110;2023-04-01T03:30:39;9.30;99.90
33739;DHT22;20063;51.730;11.110;2023-04-01T03:33:08;9.30;99.90
33739;DHT22;20063;51.730;11.110;2023-04-01T03:35:39;9.30;99.90
33739;DHT22;20063;51.730;11.110;2023-04-01T03:38:04;9.30;99.90
33739;DHT22;20063;51.730;11.110;2023-04-01T03:40:30;9.30;99.90
33739;DHT22;20063;51.730;11.110;2023-04-01T03:42:55;9.30;99.90
33739;DHT22;20063;51.730;11.110;2023-04-01T03:45:22;9.30;99.90
33739;DHT22;20063;51.730;11.110;2023-04-01T03:47:48;9.30;99.90
33739;DHT22;20063;51.730;11.110;2023-04-01T03:50:13;9.30;99.90
33739;DHT22;20063;51.730;11.110;2023-04-01T03:52:39;9.30;99.90
33739;DHT22;20063;51.730;11.110;2023-04-01T03:55:05;9.30;99.90
33739;DHT22;20063;51.730;11.110;2023-04-01T03:57:32;9.30;99.90
33739;DHT22;20063;51.730;11.110;2023-04-01T03:59:58;9.30;99.90
33739;DHT22;20063;51.730;11.110;2023-04-01T04:02:24;9.30;99.90
33739;DHT22;20063;51.730;11.110;2023-04-01T04:04:49;9.30;99.90
33739;DHT22;20063;51.730;11.110;2023-04-01T04:07:15;9.30;99.90
33739;DHT22;20063;51.730;11.110;2023-04-01T04:09:41;9.20;99.90
33739;DHT22;20063;51.730;11.110;2023-04-01T04:12:09;9.20;99.90
33739;DHT22;20063;51.730;11.110;2023-04-01T04:14:35;9.30;99.90
33739;DHT22;20063;51.730;11.110;2023-04-01T04:17:00;9.20;99.90
33739;DHT22;20063;51.730;11.110;2023-04-01T04:19:26;9.20;99.90
33739;DHT22;20063;51.730;11.110;2023-04-01T04:21:52;9.20;99.90
33739;DHT22;20063;51.730;11.110;2023-04-01T04:24:17;9.20;99.90
33739;DHT22;20063;51.730;11.110;2023-04-01T04:26:43;9.20;99.90
33739;DHT22;20063;51.730;11.110;2023-04-01T04:29:09;9.20;99.90
33739;DHT22;20063;51.730;11.110;2023-04-01T04:31:36;9.20;99.90
33739;DHT22;20063;51.730;11.110;2023-04-01T04:34:01;9.20;99.90
33739;DHT22;20063;51.730;11.110;2023-04-01T04:36:27;9.20;99.90
33739;DHT22;20063;51.730;11.110;2023-04-01T04:38:53;9.20;99.90
33739;DHT22;20063;51.730;11.110;2023-04-01T04:41:19;9.20;99.90
33739;DHT22;20063;51.730;11.110;2023-04-01T04:43:55;9.20;99.90
33739;DHT22;20063;51.730;11.110;2023-04-01T04:46:22;9.20;99.90
33739;DHT22;20063;51.730;11.110;2023-04-01T04:48:48;9.20;99.90
33739;DHT22;20063;51.730;11.110;2023-04-01T04:51:18;9.20;99.90
33739;DHT22;20063;51.730;11.110;2023-04-01T04:53:44;9.20;99.90
33739;DHT22;20063;51.730;11.110;2023-04-01T04:56:10;9.20;99.90
33739;DHT22;20063;51.730;11.110;2023-04-01T04:58:37;9.20;99.90
33739;DHT22;20063;51.730;11.110;2023-04-01T05:01:07;9.20;99.90
33739;DHT22;20063;51.730;11.110;2023-04-01T05:03:33;9.20;99.90
33739;DHT22;20063;51.730;11.110;2023-04-01T05:05:59;9.30;99.90
33739;DHT22;20063;51.730;11.110;2023-04-01T05:08:24;9.30;99.90
33739;DHT22;20063;51.730;11.110;2023-04-01T05:10:50;9.30;99.90
33739;DHT22;20063;51.730;11.110;2023-04-01T05:13:15;9.30;99.90
33739;DHT22;20063;51.730;11.110;2023-04-01T05:15:41;9.30;99.90
33739;DHT22;20063;51.730;11.110;2023-04-01T05:18:06;9.30;99.90
33739;DHT22;20063;51.730;11.110;2023-04-01T05:20:32;9.40;99.90
33739;DHT22;20063;51.730;11.110;2023-04-01T05:22:58;9.30;99.90
33739;DHT22;20063;51.730;11.110;2023-04-01T05:25:25;9.40;99.90
33739;DHT22;20063;51.730;11.110;2023-04-01T05:27:50;9.40;99.90
33739;DHT22;20063;51.730;11.110;2023-04-01T05:30:16;9.40;99.90
33739;DHT22;20063;51.730;11.110;2023-04-01T05:32:42;9.40;99.90
33739;DHT22;20063;51.730;11.110;2023-04-01T05:35:09;9.30;99.90
33739;DHT22;20063;51.730;11.110;2023-04-01T05:37:35;9.40;99.90
33739;DHT22;20063;51.730;11.110;2023-04-01T05:40:02;9.40;99.90
33739;DHT22;20063;51.730;11.110;2023-04-01T05:42:28;9.40;99.90
33739;DHT22;20063;51.730;11.110;2023-04-01T05:44:54;9.40;99.90
33739;DHT22;20063;51.730;11.110;2023-04-01T05:47:22;9.40;99.90
33739;DHT22;20063;51.730;11.110;2023-04-01T05:49:47;9.40;99.90
33739;DHT22;20063;51.730;11.110;2023-04-01T05:52:13;9.30;99.90
33739;DHT22;20063;51.730;11.110;2023-04-01T05:54:39;9.40;99.90
33739;DHT22;20063;51.730;11.110;2023-04-01T05:57:05;9.30;99.90
33739;DHT22;20063;51.730;11.110;2023-04-01T05:59:31;9.30;99.90
33739;DHT22;20063;51.730;11.110;2023-04-01T06:01:57;9.30;99.90
33739;DHT22;20063;51.730;11.110;2023-04-01T06:04:23;9.40;99.90
33739;DHT22;20063;51.730;11.110;2023-04-01T06:06:50;9.40;99.90
33739;DHT22;20063;51.730;11.110;2023-04-01T06:09:19;9.40;99.90
33739;DHT22;20063;51.730;11.110;2023-04-01T06:12:22;9.40;99.90
33739;DHT22;20063;51.730;11.110;2023-04-01T06:34:40;9.50;99.90
33739;DHT22;20063;51.730;11.110;2023-04-01T06:46:18;9.60;99.90
33739;DHT22;20063;51.730;11.110;2023-04-01T06:54:42;9.60;99.90
33739;DHT22;20063;51.730;11.110;2023-04-01T06:57:40;9.60;99.90
33739;DHT22;20063;51.730;11.110;2023-04-01T07:00:32;9.60;99.90
33739;DHT22;20063;51.730;11.110;2023-04-01T07:03:23;9.60;99.90
33739;DHT22;20063;51.730;11.110;2023-04-01T07:05:52;9.60;99.90
33739;DHT22;20063;51.730;11.110;2023-04-01T07:08:29;9.70;99.90
33739;DHT22;20063;51.730;11.110;2023-04-01T07:13:31;9.80;99.90
33739;DHT22;20063;51.730;11.110;2023-04-01T07:16:13;9.70;99.90
33739;DHT22;20063;51.730;11.110;2023-04-01T07:18:56;9.80;99.90
33739;DHT22;20063;51.730;11.110;2023-04-01T07:21:30;9.80;99.90
33739;DHT22;20063;51.730;11.110;2023-04-01T07:24:05;9.90;99.90
33739;DHT22;20063;51.730;11.110;2023-04-01T07:26:34;9.90;99.90
33739;DHT22;20063;51.730;11.110;2023-04-01T07:28:59;9.90;99.90
33739;DHT22;20063;51.730;11.110;2023-04-01T07:31:45;10.00;99.90
33739;DHT22;20063;51.730;11.110;2023-04-01T07:40:42;10.00;99.90
33739;DHT22;20063;51.730;11.110;2023-04-01T07:53:42;10.20;99.90
33739;DHT22;20063;51.730;11.110;2023-04-01T08:07:20;10.30;99.90
33739;DHT22;20063;51.730;11.110;2023-04-01T08:15:55;10.50;99.90
33739;DHT22;20063;51.730;11.110;2023-04-01T08:21:27;10.60;99.90
33739;DHT22;20063;51.730;11.110;2023-04-01T08:23:56;10.60;99.90
33739;DHT22;20063;51.730;11.110;2023-04-01T08:26:38;10.80;99.90
33739;DHT22;20063;51.730;11.110;2023-04-01T08:29:15;10.90;99.90
33739;DHT22;20063;51.730;11.110;2023-04-01T08:31:57;11.00;99.90
33739;DHT22;20063;51.730;11.110;2023-04-01T08:34:38;11.10;99.90
33739;DHT22;20063;51.730;11.110;2023-04-01T08:37:25;11.10;99.90
33739;DHT22;20063;51.730;11.110;2023-04-01T08:39:58;11.20;99.90
33739;DHT22;20063;51.730;11.110;2023-04-01T08:48:17;11.20;99.90
33739;DHT22;20063;51.730;11.110;2023-04-01T08:50:50;11.20;99.90
33739;DHT22;20063;51.730;11.110;2023-04-01T08:59:16;11.00;99.90
33739;DHT22;20063;51.730;11.110;2023-04-01T09:05:02;10.90;99.90
33739;DHT22;20063;51.730;11.110;2023-04-01T09:08:30;10.90;99.90
33739;DHT22;20063;51.730;11.110;2023-04-01T09:28:26;10.80;99.90
33739;DHT22;20063;51.730;11.110;2023-04-01T09:39:35;10.90;99.90
33739;DHT22;20063;51.730;11.110;2023-04-01T09:45:01;11.00;99.90
33739;DHT22;20063;51.730;11.110;2023-04-01T09:47:46;11.10;99.90
33739;DHT22;20063;51.730;11.110;2023-04-01T10:05:20;11.30;99.90
33739;DHT22;20063;51.730;11.110;2023-04-01T10:51:16;11.70;99.90
33739;DHT22;20063;51.730;11.110;2023-04-01T10:54:18;11.70;99.90
33739;DHT22;20063;51.730;11.110;2023-04-01T10:57:10;11.70;99.90
33739;DHT22;20063;51.730;11.110;2023-04-01T11:00:28;11.70;99.90
33739;DHT22;20063;51.730;11.110;2023-04-01T11:03:18;11.70;99.90
33739;DHT22;20063;51.730;11.110;2023-04-01T11:05:54;11.70;99.90
33739;DHT22;20063;51.730;11.110;2023-04-01T11:29:01;11.70;99.90
33739;DHT22;20063;51.730;11.110;2023-04-01T11:37:27;11.60;99.90
33739;DHT22;20063;51.730;11.110;2023-04-01T11:40:20;11.60;99.90
33739;DHT22;20063;51.730;11.110;2023-04-01T11:43:01;11.60;99.90
33739;DHT22;20063;51.730;11.110;2023-04-01T11:45:39;11.50;99.90
33739;DHT22;20063;51.730;11.110;2023-04-01T11:51:33;11.60;99.90
33739;DHT22;20063;51.730;11.110;2023-04-01T11:54:27;11.60;99.90
33739;DHT22;20063;51.730;11.110;2023-04-01T12:05:28;11.60;99.90
33739;DHT22;20063;51.730;11.110;2023-04-01T12:08:13;11.70;99.90
33739;DHT22;20063;51.730;11.110;2023-04-01T12:13:38;11.80;99.90
33739;DHT22;20063;51.730;11.110;2023-04-01T12:21:52;11.90;99.90
33739;DHT22;20063;51.730;11.110;2023-04-01T12:24:49;11.80;99.90
33739;DHT22;20063;51.730;11.110;2023-04-01T12:27:31;11.70;99.90
33739;DHT22;20063;51.730;11.110;2023-04-01T12:30:25;11.70;99.90
33739;DHT22;20063;51.730;11.110;2023-04-01T12:36:15;11.70;99.90
33739;DHT22;20063;51.730;11.110;2023-04-01T12:39:18;11.70;99.90
33739;DHT22;20063;51.730;11.110;2023-04-01T12:50:58;11.60;99.90
33739;DHT22;20063;51.730;11.110;2023-04-01T12:59:39;11.40;99.90
33739;DHT22;20063;51.730;11.110;2023-04-01T13:10:52;11.30;99.90
33739;DHT22;20063;51.730;11.110;2023-04-01T13:13:27;11.30;99.90
33739;DHT22;20063;51.730;11.110;2023-04-01T13:16:19;11.30;99.90
33739;DHT22;20063;51.730;11.110;2023-04-01T13:24:28;11.30;99.90
33739;DHT22;20063;51.730;11.110;2023-04-01T13:30:11;11.40;99.90
33739;DHT22;20063;51.730;11.110;2023-04-01T13:41:30;11.60;99.90
33739;DHT22;20063;51.730;11.110;2023-04-01T13:44:02;11.60;99.90
33739;DHT22;20063;51.730;11.110;2023-04-01T13:52:10;11.60;99.90
33739;DHT22;20063;51.730;11.110;2023-04-01T14:02:47;11.60;99.90
33739;DHT22;20063;51.730;11.110;2023-04-01T14:11:27;11.60;99.90
33739;DHT22;20063;51.730;11.110;2023-04-01T14:14:08;11.70;99.90
33739;DHT22;20063;51.730;11.110;2023-04-01T14:17:01;11.70;99.90
33739;DHT22;20063;51.730;11.110;2023-04-01T14:20:00;11.70;99.90
33739;DHT22;20063;51.730;11.110;2023-04-01T14:23:03;11.70;99.90
33739;DHT22;20063;51.730;11.110;2023-04-01T14:25:50;11.70;99.90
33739;DHT22;20063;51.730;11.110;2023-04-01T14:30:52;11.70;99.90
33739;DHT22;20063;51.730;11.110;2023-04-01T14:40:16;11.70;99.90
33739;DHT22;20063;51.730;11.110;2023-04-01T14:47:47;11.50;99.90
33739;DHT22;20063;51.730;11.110;2023-04-01T14:50:27;11.50;99.90
33739;DHT22;20063;51.730;11.110;2023-04-01T14:53:23;11.50;99.90
33739;DHT22;20063;51.730;11.110;2023-04-01T14:55:57;11.50;99.90
33739;DHT22;20063;51.730;11.110;2023-04-01T14:58:41;11.50;99.90
33739;DHT22;20063;51.730;11.110;2023-04-01T15:01:32;11.40;99.90
33739;DHT22;20063;51.730;11.110;2023-04-01T15:04:37;11.40;99.90
33739;DHT22;20063;51.730;11.110;2023-04-01T15:07:20;11.40;99.90
33739;DHT22;20063;51.730;11.110;2023-04-01T15:10:21;11.30;99.90
33739;DHT22;20063;51.730;11.110;2023-04-01T15:13:13;11.30;99.90
33739;DHT22;20063;51.730;11.110;2023-04-01T15:22:15;11.10;99.90
33739;DHT22;20063;51.730;11.110;2023-04-01T15:33:39;10.90;99.90
33739;DHT22;20063;51.730;11.110;2023-04-01T15:36:15;10.90;99.90
33739;DHT22;20063;51.730;11.110;2023-04-01T15:39:09;10.90;99.90
33739;DHT22;20063;51.730;11.110;2023-04-01T15:46:58;10.80;99.90
33739;DHT22;20063;51.730;11.110;2023-04-01T15:49:41;10.80;99.90
33739;DHT22;20063;51.730;11.110;2023-04-01T15:55:28;10.70;99.90
33739;DHT22;20063;51.730;11.110;2023-04-01T15:58:15;10.60;99.90
33739;DHT22;20063;51.730;11.110;2023-04-01T16:10:06;10.40;99.90
33739;DHT22;20063;51.730;11.110;2023-04-01T16:12:29;10.30;99.90
33739;DHT22;20063;51.730;11.110;2023-04-01T16:15:21;10.30;99.90
33739;DHT22;20063;51.730;11.110;2023-04-01T16:18:01;10.20;99.90
33739;DHT22;20063;51.730;11.110;2023-04-01T16:20:50;10.20;99.90
33739;DHT22;20063;51.730;11.110;2023-04-01T16:23:24;10.10;99.90
33739;DHT22;20063;51.730;11.110;2023-04-01T16:26:27;10.10;99.90
33739;DHT22;20063;51.730;11.110;2023-04-01T16:31:58;10.10;99.90
33739;DHT22;20063;51.730;11.110;2023-04-01T16:34:36;10.00;99.90
33739;DHT22;20063;51.730;11.110;2023-04-01T16:45:41;10.00;99.90
33739;DHT22;20063;51.730;11.110;2023-04-01T16:48:15;10.00;99.90
33739;DHT22;20063;51.730;11.110;2023-04-01T16:51:00;10.00;99.90
33739;DHT22;20063;51.730;11.110;2023-04-01T16:53:41;10.10;99.90
33739;DHT22;20063;51.730;11.110;2023-04-01T16:56:36;10.00;99.90
33739;DHT22;20063;51.730;11.110;2023-04-01T16:59:19;10.10;99.90
33739;DHT22;20063;51.730;11.110;2023-04-01T17:02:02;10.00;99.90
33739;DHT22;20063;51.730;11.110;2023-04-01T17:04:36;10.10;99.90
33739;DHT22;20063;51.730;11.110;2023-04-01T17:18:13;10.10;99.90
33739;DHT22;20063;51.730;11.110;2023-04-01T17:20:54;10.10;99.90
33739;DHT22;20063;51.730;11.110;2023-04-01T17:28:58;10.10;99.90
33739;DHT22;20063;51.730;11.110;2023-04-01T17:31:44;10.00;99.90
33739;DHT22;20063;51.730;11.110;2023-04-01T17:34:39;10.00;99.90
33739;DHT22;20063;51.730;11.110;2023-04-01T17:37:30;9.90;99.90
33739;DHT22;20063;51.730;11.110;2023-04-01T17:46:05;9.60;99.90
33739;DHT22;20063;51.730;11.110;2023-04-01T17:48:49;9.50;99.90
33739;DHT22;20063;51.730;11.110;2023-04-01T17:54:18;9.40;99.90
33739;DHT22;20063;51.730;11.110;2023-04-01T17:59:35;9.30;99.90
33739;DHT22;20063;51.730;11.110;2023-04-01T18:05:06;9.20;99.90
33739;DHT22;20063;51.730;11.110;2023-04-01T18:17:05;9.00;99.90
33739;DHT22;20063;51.730;11.110;2023-04-01T18:38:50;8.60;99.90
33739;DHT22;20063;51.730;11.110;2023-04-01T18:44:46;8.50;99.90
33739;DHT22;20063;51.730;11.110;2023-04-01T18:47:25;8.50;99.90
33739;DHT22;20063;51.730;11.110;2023-04-01T18:56:11;8.40;99.90
33739;DHT22;20063;51.730;11.110;2023-04-01T18:59:32;8.40;99.90
33739;DHT22;20063;51.730;11.110;2023-04-01T19:04:39;8.30;99.90
33739;DHT22;20063;51.730;11.110;2023-04-01T19:07:45;8.20;99.90
33739;DHT22;20063;51.730;11.110;2023-04-01T19:10:21;8.10;99.90
33739;DHT22;20063;51.730;11.110;2023-04-01T19:19:16;8.00;99.90
33739;DHT22;20063;51.730;11.110;2023-04-01T19:21:55;7.90;99.90
33739;DHT22;20063;51.730;11.110;2023-04-01T19:24:31;7.90;99.90
33739;DHT22;20063;51.730;11.110;2023-04-01T19:27:03;7.80;99.90
33739;DHT22;20063;51.730;11.110;2023-04-01T19:38:22;7.70;99.90
33739;DHT22;20063;51.730;11.110;2023-04-01T19:44:06;7.60;99.90
33739;DHT22;20063;51.730;11.110;2023-04-01T19:46:45;7.60;99.90
33739;DHT22;20063;51.730;11.110;2023-04-01T19:52:19;7.50;99.90
33739;DHT22;20063;51.730;11.110;2023-04-01T20:06:32;7.40;99.90
33739;DHT22;20063;51.730;11.110;2023-04-01T20:12:18;7.30;99.90
33739;DHT22;20063;51.730;11.110;2023-04-01T20:14:55;7.30;99.90
33739;DHT22;20063;51.730;11.110;2023-04-01T20:25:26;7.20;99.90
33739;DHT22;20063;51.730;11.110;2023-04-01T20:28:14;7.10;99.90
33739;DHT22;20063;51.730;11.110;2023-04-01T20:31:19;7.10;99.90
33739;DHT22;20063;51.730;11.110;2023-04-01T20:34:03;7.10;99.90
33739;DHT22;20063;51.730;11.110;2023-04-01T20:36:50;7.00;99.90
33739;DHT22;20063;51.730;11.110;2023-04-01T20:42:46;7.00;99.90
33739;DHT22;20063;51.730;11.110;2023-04-01T20:45:24;6.90;99.90
33739;DHT22;20063;51.730;11.110;2023-04-01T20:48:26;7.00;99.90
33739;DHT22;20063;51.730;11.110;2023-04-01T20:51:22;6.90;99.90
33739;DHT22;20063;51.730;11.110;2023-04-01T21:02:02;6.80;99.90
33739;DHT22;20063;51.730;11.110;2023-04-01T21:07:37;6.70;99.90
33739;DHT22;20063;51.730;11.110;2023-04-01T21:24:28;6.50;99.90
33739;DHT22;20063;51.730;11.110;2023-04-01T21:27:13;6.50;99.90
33739;DHT22;20063;51.730;11.110;2023-04-01T21:29:56;6.40;99.90
33739;DHT22;20063;51.730;11.110;2023-04-01T21:33:14;6.40;99.90
33739;DHT22;20063;51.730;11.110;2023-04-01T21:39:00;6.40;99.90
33739;DHT22;20063;51.730;11.110;2023-04-01T22:04:53;6.10;99.90
33739;DHT22;20063;51.730;11.110;2023-04-01T22:07:32;6.10;99.90
33739;DHT22;20063;51.730;11.110;2023-04-01T22:12:54;6.10;99.90
33739;DHT22;20063;51.730;11.110;2023-04-01T22:15:27;6.00;99.90
33739;DHT22;20063;51.730;11.110;2023-04-01T22:18:12;6.00;99.90
33739;DHT22;20063;51.730;11.110;2023-04-01T22:20:56;6.00;99.90
33739;DHT22;20063;51.730;11.110;2023-04-01T22:23:40;5.90;99.90
33739;DHT22;20063;51.730;11.110;2023-04-01T22:29:38;5.90;99.90
33739;DHT22;20063;51.730;11.110;2023-04-01T22:32:16;5.80;99.90
33739;DHT22;20063;51.730;11.110;2023-04-01T22:34:54;5.80;99.90
33739;DHT22;20063;51.730;11.110;2023-04-01T22:37:37;5.70;99.90
33739;DHT22;20063;51.730;11.110;2023-04-01T22:40:31;5.70;99.90
33739;DHT22;20063;51.730;11.110;2023-04-01T22:43:06;5.60;99.90
33739;DHT22;20063;51.730;11.110;2023-04-01T22:48:44;5.50;99.90
33739;DHT22;20063;51.730;11.110;2023-04-01T22:54:23;5.50;99.90
33739;DHT22;20063;51.730;11.110;2023-04-01T22:57:05;5.50;99.90
33739;DHT22;20063;51.730;11.110;2023-04-01T22:59:50;5.60;99.90
33739;DHT22;20063;51.730;11.110;2023-04-01T23:02:23;5.60;99.90
33739;DHT22;20063;51.730;11.110;2023-04-01T23:04:57;5.60;99.90
33739;DHT22;20063;51.730;11.110;2023-04-01T23:08:02;5.50;99.90
33739;DHT22;20063;51.730;11.110;2023-04-01T23:10:43;5.50;99.90
33739;DHT22;20063;51.730;11.110;2023-04-01T23:13:19;5.40;99.90
33739;DHT22;20063;51.730;11.110;2023-04-01T23:15:46;5.40;99.90
33739;DHT22;20063;51.730;11.110;2023-04-01T23:18:28;5.40;99.90
33739;DHT22;20063;51.730;11.110;2023-04-01T23:21:35;5.30;99.90
33739;DHT22;20063;51.730;11.110;2023-04-01T23:24:30;5.30;99.90
33739;DHT22;20063;51.730;11.110;2023-04-01T23:29:28;5.30;99.90
33739;DHT22;20063;51.730;11.110;2023-04-01T23:34:30;5.20;99.90
33739;DHT22;20063;51.730;11.110;2023-04-01T23:36:59;5.20;99.90
33739;DHT22;20063;51.730;11.110;2023-04-01T23:41:58;5.10;99.90
33739;DHT22;20063;51.730;11.110;2023-04-01T23:44:25;5.10;99.90
33739;DHT22;20063;51.730;11.110;2023-04-01T23:46:54;5.10;99.90
33739;DHT22;20063;51.730;11.110;2023-04-01T23:49:33;5.10;99.90
33739;DHT22;20063;51.730;11.110;2023-04-01T23:52:17;5.10;99.90
33739;DHT22;20063;51.730;11.110;2023-04-01T23:54:54;5.10;99.90
33739;DHT22;20063;51.730;11.110;2023-04-01T23:57:28;5.10;99.90
